Time;durP1;ratioP1;P1;durP2;ratioP2;P2;SDS_P1;SDS_P2;PMS_P1;PMS_P2;Temp;Humidity;BMP_temperature;BMP_pressure;BME280_temperature;BME280_humidity;BME280_pressure;Samples;Min_cycle;Max_cycle;Signal;HPM_P1;HPM_P2
2022/10/10 07:07:16;;;;;;;;;;;;;;;;;;10681570;27;20031;-85
2022/10/10 07:12:47;;;;;;;5.80;3.33;;;;;;;;;;10663855;27;19914;-84
2022/10/10 07:18:00;;;;;;;;;;;;;;;;;;10662539;27;20462;-85
2022/10/10 07:23:14;;;;;;;6.70;3.13;;;;;;;;;;10661005;27;19952;-86
2022/10/10 07:28:42;;;;;;;4.95;2.63;;;;;;;;;;10661995;27;20067;-86
2022/10/10 07:33:56;;;;;;;6.05;2.72;;;;;;;;;;10660687;27;20040;-86
2022/10/10 07:39:16;;;;;;;4.80;2.45;;;;;;;;;;10660358;27;20037;-86
2022/10/10 07:44:42;;;;;;;4.57;2.60;;;;;;;;;;10662018;27;20026;-86
2022/10/10 07:55:52;;;;;;;5.93;2.97;;;;;;;;;;10681198;27;20015;-86
2022/10/10 08:01:06;;;;;;;4.53;3.15;;;;;;;;;;10662967;27;20015;-86
2022/10/10 08:17:44;;;;;;;4.05;2.42;;;;;;;;;;10679826;27;20055;-85
2022/10/10 08:22:58;;;;;;;3.28;2.30;;;;;;;;;;10661773;27;20027;-85
2022/10/10 08:45:33;;;;;;;4.03;2.80;;;;;;;;;;10504136;28;20040;-87
2022/10/10 08:50:41;;;;;;;4.07;2.50;;;;;;;;;;10620274;27;20031;-88
2022/10/10 08:55:43;;;;;;;4.43;2.53;;;;;;;;;;10661716;27;20470;-87
2022/10/10 09:00:47;;;;;;;5.38;2.95;;;;;;;;;;10660876;27;20137;-85
2022/10/10 09:05:55;;;;;;;4.95;3.10;;;;;;;;;;10658868;27;20034;-85
2022/10/10 09:11:06;;;;;;;4.97;2.60;;;;;;;;;;10657685;27;20026;-85
2022/10/10 09:16:21;;;;;;;6.80;3.30;;;;;;;;;;10657586;27;20034;-84
2022/10/10 09:21:28;;;;;;;7.32;3.00;;;;;;;;;;10657340;27;20045;-86
2022/10/10 09:26:33;;;;;;;5.55;3.15;;;;;;;;;;10676491;27;20023;-84
2022/10/10 09:31:37;;;;;;;6.50;3.90;;;;;;;;;;10657666;27;20014;-85
2022/10/10 09:36:39;;;;;;;7.13;3.80;;;;;;;;;;10656444;27;20030;-86
2022/10/10 09:41:43;;;;;;;8.00;3.40;;;;;;;;;;10660472;27;20029;-84
2022/10/10 09:46:44;;;;;;;6.28;2.95;;;;;;;;;;10658201;27;20427;-85
2022/10/10 09:51:46;;;;;;;6.85;4.20;;;;;;;;;;10659108;27;20038;-86
2022/10/10 09:56:54;;;;;;;6.22;3.60;;;;;;;;;;10660603;27;20071;-85
2022/10/10 10:02:03;;;;;;;6.80;3.20;;;;;;;;;;10657145;27;20042;-85
2022/10/10 10:07:19;;;;;;;4.22;2.72;;;;;;;;;;10663844;27;20037;-84
2022/10/10 10:12:24;;;;;;;8.10;2.92;;;;;;;;;;10660821;27;20023;-85
2022/10/10 10:17:25;;;;;;;5.40;2.67;;;;;;;;;;10660340;27;20030;-85
2022/10/10 10:22:34;;;;;;;4.82;2.65;;;;;;;;;;10676597;27;20030;-86
2022/10/10 10:27:35;;;;;;;6.28;3.35;;;;;;;;;;10662013;27;20026;-85
2022/10/10 10:32:51;;;;;;;4.82;2.95;;;;;;;;;;10665587;27;20033;-85
2022/10/10 10:38:11;;;;;;;3.95;2.50;;;;;;;;;;10679320;27;20061;-85
2022/10/10 10:43:31;;;;;;;7.03;3.30;;;;;;;;;;10683626;27;20027;-84
2022/10/10 10:48:50;;;;;;;6.22;2.88;;;;;;;;;;10666817;27;20019;-84
2022/10/10 10:54:17;;;;;;;7.33;2.63;;;;;;;;;;10668241;27;20026;-84
2022/10/10 10:59:35;;;;;;;6.07;2.60;;;;;;;;;;10665927;27;20011;-85
2022/10/10 11:04:52;;;;;;;5.88;2.63;;;;;;;;;;10669510;27;20019;-85
2022/10/10 11:10:03;;;;;;;7.22;2.75;;;;;;;;;;10666741;27;20489;-84
2022/10/10 11:15:17;;;;;;;3.88;2.20;;;;;;;;;;10665478;27;20217;-85
2022/10/10 11:20:24;;;;;;;3.88;2.13;;;;;;;;;;10544178;22;20475;-81
2022/10/10 11:25:31;;;;;;;4.05;2.00;;;;;;;;;;10495852;28;20086;-78
2022/10/10 11:30:34;;;;;;;9.68;2.80;;;;;;;;;;10550230;28;20020;-81
2022/10/10 11:35:54;;;;;;;7.38;3.10;;;;;;;;;;10537106;28;20027;-80
2022/10/10 11:40:55;;;;;;;8.45;3.45;;;;;;;;;;10539089;28;20055;-79
2022/10/10 11:46:03;;;;;;;6.13;2.25;;;;;;;;;;10559106;28;20061;-78
2022/10/10 11:51:10;;;;;;;5.10;2.42;;;;;;;;;;10559378;28;20483;-78
2022/10/10 11:56:11;;;;;;;3.80;2.20;;;;;;;;;;10554524;28;20111;-81
2022/10/10 12:01:13;;;;;;;4.18;2.38;;;;;;;;;;10536216;28;20082;-80
2022/10/10 12:06:37;;;;;;;6.70;2.22;;;;;;;;;;10533852;28;20036;-83
2022/10/10 12:11:44;;;;;;;8.20;2.80;;;;;;;;;;10523602;28;20032;-81
2022/10/10 12:16:46;;;;;;;6.55;2.40;;;;;;;;;;10537388;28;20039;-80
2022/10/10 12:21:58;;;;;;;7.53;3.80;;;;;;;;;;10553683;28;20476;-79
2022/10/10 12:26:59;;;;;;;6.47;3.10;;;;;;;;;;10553558;28;20020;-79
2022/10/10 12:32:18;;;;;;;11.23;4.75;;;;;;;;;;10553756;28;20028;-79
2022/10/10 12:37:29;;;;;;;9.43;3.20;;;;;;;;;;10533566;28;20027;-77
2022/10/10 12:42:36;;;;;;;10.27;3.58;;;;;;;;;;10538126;28;20494;-78
2022/10/10 12:47:43;;;;;;;5.55;3.00;;;;;;;;;;10528719;28;20475;-78
2022/10/10 12:52:56;;;;;;;6.45;2.85;;;;;;;;;;10531121;28;20028;-78
2022/10/10 12:58:01;;;;;;;9.20;3.22;;;;;;;;;;10533218;28;20056;-78
2022/10/10 13:03:04;;;;;;;7.90;2.92;;;;;;;;;;10533583;28;20027;-80
2022/10/10 13:08:07;;;;;;;8.52;4.18;;;;;;;;;;10533577;28;20024;-78
2022/10/10 13:13:19;;;;;;;6.78;3.17;;;;;;;;;;10548074;28;20107;-79
2022/10/10 13:18:33;;;;;;;9.27;3.05;;;;;;;;;;10527484;28;20406;-79
2022/10/10 13:23:36;;;;;;;8.05;3.55;;;;;;;;;;10528838;28;20054;-78
2022/10/10 13:28:37;;;;;;;9.65;3.70;;;;;;;;;;10528215;28;20031;-79
2022/10/10 13:33:38;;;;;;;9.38;3.47;;;;;;;;;;10545821;28;20020;-78
2022/10/10 13:38:39;;;;;;;9.15;3.53;;;;;;;;;;10531684;28;20048;-80
2022/10/10 13:43:40;;;;;;;9.88;3.40;;;;;;;;;;10533605;28;20032;-79
2022/10/10 13:48:41;;;;;;;8.45;3.45;;;;;;;;;;10532995;28;20054;-80
2022/10/10 13:53:47;;;;;;;11.10;4.60;;;;;;;;;;10532742;28;20060;-80
2022/10/10 13:58:53;;;;;;;8.13;4.15;;;;;;;;;;10531440;28;20024;-81
2022/10/10 14:03:57;;;;;;;8.82;4.88;;;;;;;;;;10552866;28;20021;-80
2022/10/10 14:09:08;;;;;;;9.38;4.47;;;;;;;;;;10533377;28;20024;-81
2022/10/10 14:14:24;;;;;;;9.20;4.25;;;;;;;;;;10533283;28;20124;-80
2022/10/10 14:19:27;;;;;;;6.68;3.95;;;;;;;;;;10540087;28;20097;-81
2022/10/10 14:24:28;;;;;;;8.27;3.65;;;;;;;;;;10555262;28;20100;-81
2022/10/10 14:29:29;;;;;;;6.40;3.20;;;;;;;;;;10540665;28;20028;-80
2022/10/10 14:34:31;;;;;;;9.82;3.33;;;;;;;;;;10540589;28;20024;-80
2022/10/10 14:39:32;;;;;;;6.68;3.08;;;;;;;;;;10522159;28;20044;-81
2022/10/10 14:44:33;;;;;;;7.07;3.00;;;;;;;;;;10540020;28;20544;-80
2022/10/10 14:49:34;;;;;;;9.45;5.13;;;;;;;;;;10540288;28;20051;-80
2022/10/10 14:54:36;;;;;;;6.78;4.03;;;;;;;;;;10538817;28;20063;-82
2022/10/10 14:59:37;;;;;;;9.80;3.47;;;;;;;;;;10541835;28;20454;-80
2022/10/10 15:04:38;;;;;;;9.88;4.25;;;;;;;;;;10539769;28;20070;-80
2022/10/10 15:09:39;;;;;;;7.72;5.07;;;;;;;;;;10557359;28;20089;-80
2022/10/10 15:14:40;;;;;;;8.25;5.10;;;;;;;;;;10544700;28;20039;-81
2022/10/10 15:19:41;;;;;;;7.82;3.65;;;;;;;;;;10539851;28;20028;-81
2022/10/10 15:24:42;;;;;;;8.18;3.40;;;;;;;;;;10539929;28;20348;-81
2022/10/10 15:29:43;;;;;;;8.98;4.20;;;;;;;;;;10538825;28;20051;-82
2022/10/10 15:34:47;;;;;;;5.85;3.70;;;;;;;;;;10557845;28;20101;-81
2022/10/10 15:39:48;;;;;;;7.70;4.40;;;;;;;;;;10543128;28;20027;-82
2022/10/10 15:44:50;;;;;;;5.50;2.90;;;;;;;;;;10539368;28;20031;-81
2022/10/10 15:49:51;;;;;;;13.10;3.65;;;;;;;;;;10536915;28;20104;-81
2022/10/10 15:54:52;;;;;;;5.63;2.83;;;;;;;;;;10535159;28;20483;-81
2022/10/10 15:59:54;;;;;;;7.18;3.40;;;;;;;;;;10540408;28;20062;-82
2022/10/10 16:04:55;;;;;;;6.50;3.67;;;;;;;;;;10545859;28;20069;-81
2022/10/10 16:09:57;;;;;;;5.47;2.80;;;;;;;;;;10543263;28;20035;-81
2022/10/10 16:14:58;;;;;;;4.38;3.10;;;;;;;;;;10539410;28;20047;-81
2022/10/10 16:19:59;;;;;;;5.22;2.70;;;;;;;;;;10542074;28;20047;-84
2022/10/10 16:25:01;;;;;;;5.00;3.05;;;;;;;;;;10539555;28;20024;-85
2022/10/10 16:30:02;;;;;;;4.30;2.70;;;;;;;;;;10535241;28;20095;-85
2022/10/10 16:35:03;;;;;;;7.30;4.32;;;;;;;;;;10534581;28;20127;-86
2022/10/10 16:40:04;;;;;;;7.43;3.83;;;;;;;;;;10532539;28;20035;-85
2022/10/10 16:45:05;;;;;;;5.32;3.60;;;;;;;;;;10532756;28;20024;-86
2022/10/10 16:50:07;;;;;;;9.05;4.70;;;;;;;;;;10551927;28;20024;-87
2022/10/10 16:55:10;;;;;;;9.57;4.15;;;;;;;;;;10525384;28;20073;-85
2022/10/10 17:00:11;;;;;;;7.35;4.40;;;;;;;;;;10525321;28;20016;-85
2022/10/10 17:05:12;;;;;;;6.43;4.00;;;;;;;;;;10526216;28;20028;-85
2022/10/10 17:10:13;;;;;;;6.57;3.88;;;;;;;;;;10547681;28;20031;-85
2022/10/10 17:15:14;;;;;;;3.97;2.47;;;;;;;;;;10531444;28;20028;-86
